createdAt,value
2019-03-24T00:00:29.827Z,5.78
2019-03-24T00:01:40.450Z,5.85
2019-03-24T00:02:30.189Z,5.89
2019-03-24T00:03:30.469Z,5.83
2019-03-24T00:04:30.530Z,5.78
2019-03-24T00:05:30.706Z,5.81
2019-03-24T00:06:30.895Z,5.65
2019-03-24T00:07:31.086Z,5.72
2019-03-24T00:08:31.272Z,5.78
2019-03-24T00:09:31.453Z,5.65
2019-03-24T00:10:31.635Z,5.67
2019-03-24T00:11:31.826Z,5.63
2019-03-24T00:12:32.010Z,5.63
2019-03-24T00:13:32.195Z,5.67
2019-03-24T00:14:32.379Z,5.74
2019-03-24T00:15:32.564Z,5.71
2019-03-24T00:16:32.747Z,5.67
2019-03-24T00:17:32.931Z,5.58
2019-03-24T00:18:33.116Z,5.65
2019-03-24T00:19:33.317Z,5.65
2019-03-24T00:20:33.507Z,5.56
2019-03-24T00:21:33.686Z,5.53
2019-03-24T00:22:33.863Z,5.56
2019-03-24T00:23:34.045Z,5.46
2019-03-24T00:24:34.237Z,5.54
2019-03-24T00:25:34.421Z,5.51
2019-03-24T00:26:34.605Z,5.54
2019-03-24T00:27:34.779Z,5.54
2019-03-24T00:28:34.964Z,5.61
2019-03-24T00:29:35.139Z,5.54
2019-03-24T00:30:35.321Z,5.51
2019-03-24T00:31:35.503Z,5.51
2019-03-24T00:32:35.718Z,5.51
2019-03-24T00:33:35.879Z,5.56
2019-03-24T00:34:36.060Z,5.54
2019-03-24T00:35:36.243Z,5.53
2019-03-24T00:36:36.422Z,5.53
2019-03-24T00:37:36.614Z,5.51
2019-03-24T00:38:36.795Z,5.49
2019-03-24T00:39:36.978Z,5.39
2019-03-24T00:40:37.157Z,5.45
2019-03-24T00:41:37.346Z,5.40
2019-03-24T00:42:37.535Z,5.39
2019-03-24T00:43:37.722Z,5.45
2019-03-24T00:44:37.904Z,5.45
2019-03-24T00:45:38.090Z,5.46
2019-03-24T00:46:38.275Z,5.45
2019-03-24T00:47:38.458Z,5.42
2019-03-24T00:48:38.642Z,5.43
2019-03-24T00:49:38.833Z,5.38
2019-03-24T00:50:39.008Z,5.43
2019-03-24T00:51:39.188Z,5.39
2019-03-24T00:52:39.374Z,5.31
2019-03-24T00:53:39.556Z,5.36
2019-03-24T00:54:39.744Z,5.31
2019-03-24T00:55:39.925Z,5.30
2019-03-24T00:56:40.109Z,5.22
2019-03-24T00:57:40.292Z,5.24
2019-03-24T00:58:40.466Z,5.21
2019-03-24T00:59:40.653Z,5.22
2019-03-24T01:00:40.838Z,5.24
2019-03-24T01:01:41.016Z,5.12
2019-03-24T01:02:41.211Z,5.17
2019-03-24T01:03:41.388Z,5.17
2019-03-24T01:04:41.578Z,5.12
2019-03-24T01:05:41.757Z,5.07
2019-03-24T01:06:41.957Z,5.18
2019-03-24T01:07:42.123Z,5.06
2019-03-24T01:08:42.304Z,5.04
2019-03-24T01:09:42.486Z,4.96
2019-03-24T01:10:42.668Z,5.00
2019-03-24T01:11:42.862Z,5.02
2019-03-24T01:12:43.049Z,5.00
2019-03-24T01:13:43.232Z,4.96
2019-03-24T01:14:43.415Z,4.99
2019-03-24T01:15:48.019Z,5.00
2019-03-24T01:16:43.779Z,4.99
2019-03-24T01:17:43.956Z,5.03
2019-03-24T01:18:44.145Z,4.97
2019-03-24T01:19:44.343Z,5.04
2019-03-24T01:20:44.531Z,5.02
2019-03-24T01:21:44.702Z,5.07
2019-03-24T01:22:44.881Z,4.92
2019-03-24T01:23:45.068Z,4.94
2019-03-24T01:24:45.252Z,5.00
2019-03-24T01:25:45.445Z,4.97
2019-03-24T01:26:45.636Z,5.00
2019-03-24T01:27:45.824Z,4.97
2019-03-24T01:28:46.002Z,4.94
2019-03-24T01:29:46.196Z,5.04
2019-03-24T01:30:46.381Z,5.06
2019-03-24T01:31:46.568Z,5.04
2019-03-24T01:32:46.752Z,5.00
2019-03-24T01:33:46.934Z,4.96
2019-03-24T01:37:30.484Z,5.09
2019-03-24T01:38:30.667Z,4.96
2019-03-24T01:39:30.862Z,5.07
2019-03-24T01:40:31.030Z,5.02
2019-03-24T01:41:31.209Z,5.09
2019-03-24T01:42:31.392Z,5.09
2019-03-24T01:43:31.571Z,5.07
2019-03-24T01:44:31.750Z,5.12
2019-03-24T01:45:31.932Z,5.15
2019-03-24T01:46:32.109Z,5.09
2019-03-24T01:47:32.296Z,5.03
2019-03-24T01:48:32.477Z,4.99
2019-03-24T01:49:32.667Z,5.02
2019-03-24T01:50:32.843Z,5.02
2019-03-24T01:51:33.028Z,5.04
2019-03-24T01:52:33.209Z,5.10
2019-03-24T01:53:33.389Z,5.02
2019-03-24T01:54:33.571Z,4.94
2019-03-24T01:55:33.748Z,4.97
2019-03-24T01:56:33.941Z,5.02
2019-03-24T01:57:34.132Z,4.99
2019-03-24T01:58:34.313Z,4.97
2019-03-24T01:59:34.503Z,5.06
2019-03-24T02:00:34.695Z,5.03
2019-03-24T02:01:34.871Z,4.99
2019-03-24T02:02:35.052Z,5.02
2019-03-24T02:03:35.233Z,4.99
2019-03-24T02:04:35.415Z,5.03
2019-03-24T02:05:35.594Z,5.06
2019-03-24T02:06:35.783Z,5.13
2019-03-24T02:07:35.961Z,5.03
2019-03-24T02:08:36.145Z,5.07
2019-03-24T02:09:36.333Z,5.04
2019-03-24T02:10:36.521Z,5.07
2019-03-24T02:11:36.701Z,5.04
2019-03-24T02:12:36.885Z,5.18
2019-03-24T02:13:37.067Z,5.12
2019-03-24T02:14:37.255Z,5.15
2019-03-24T02:15:37.425Z,5.22
2019-03-24T02:16:37.623Z,5.21
2019-03-24T02:17:37.801Z,5.22
2019-03-24T02:18:37.981Z,5.17
2019-03-24T02:19:38.157Z,5.18
2019-03-24T02:20:38.339Z,5.22
2019-03-24T02:21:38.524Z,5.22
2019-03-24T02:22:38.720Z,5.18
2019-03-24T02:23:38.902Z,5.17
2019-03-24T02:24:39.084Z,5.18
2019-03-24T02:25:39.267Z,5.17
2019-03-24T02:26:39.457Z,5.18
2019-03-24T02:27:39.629Z,4.99
2019-03-24T02:28:39.815Z,5.03
2019-03-24T02:29:39.999Z,5.02
2019-03-24T02:30:40.172Z,5.06
2019-03-24T02:31:40.364Z,5.03
2019-03-24T02:32:40.554Z,5.00
2019-03-24T02:33:40.747Z,5.00
2019-03-24T02:34:40.920Z,4.94
2019-03-24T02:35:41.109Z,4.97
2019-03-24T02:36:41.294Z,5.09
2019-03-24T02:37:41.477Z,5.13
2019-03-24T02:38:41.659Z,5.18
2019-03-24T02:39:41.845Z,5.28
2019-03-24T02:40:42.023Z,5.18
2019-03-24T02:41:42.200Z,5.17
2019-03-24T02:42:42.386Z,5.09
2019-03-24T02:43:42.568Z,5.06
2019-03-24T02:44:42.746Z,5.12
2019-03-24T02:45:42.926Z,5.17
2019-03-24T02:46:43.110Z,5.21
2019-03-24T02:47:43.291Z,5.20
2019-03-24T02:48:43.471Z,5.28
2019-03-24T02:49:43.656Z,5.18
2019-03-24T02:50:43.841Z,5.18
2019-03-24T02:51:44.015Z,5.10
2019-03-24T02:52:44.200Z,5.24
2019-03-24T02:53:44.383Z,5.24
2019-03-24T02:54:44.569Z,5.40
2019-03-24T02:55:44.745Z,5.42
2019-03-24T02:56:44.924Z,5.40
2019-03-24T02:57:45.103Z,5.46
2019-03-24T02:58:45.288Z,5.56
2019-03-24T02:59:45.473Z,5.49
2019-03-24T03:00:45.650Z,5.57
2019-03-24T03:01:45.834Z,5.49
2019-03-24T03:02:46.015Z,5.42
2019-03-24T03:03:46.192Z,5.48
2019-03-24T03:04:46.385Z,5.45
2019-03-24T03:05:46.565Z,5.48
2019-03-24T03:06:46.749Z,5.38
2019-03-24T03:07:46.932Z,5.49
2019-03-24T03:08:47.127Z,5.39
2019-03-24T03:09:47.306Z,5.42
2019-03-24T03:10:47.473Z,5.46
2019-03-24T03:11:47.672Z,5.35
2019-03-24T03:12:47.955Z,5.27
2019-03-24T03:13:48.043Z,5.28
2019-03-24T03:14:48.225Z,5.30
2019-03-24T03:15:48.409Z,5.22
2019-03-24T03:16:48.600Z,5.24
2019-03-24T03:17:48.781Z,5.31
2019-03-24T03:18:48.965Z,5.30
2019-03-24T03:19:49.153Z,5.35
2019-03-24T03:20:49.329Z,5.38
2019-03-24T03:21:49.516Z,5.42
2019-03-24T03:22:49.695Z,5.33
2019-03-24T03:23:49.877Z,5.31
2019-03-24T03:24:50.060Z,5.42
2019-03-24T03:25:50.241Z,5.36
2019-03-24T03:26:50.423Z,5.31
2019-03-24T03:27:50.608Z,5.36
2019-03-24T03:28:50.840Z,5.39
2019-03-24T03:29:50.976Z,5.30
2019-03-24T03:30:51.164Z,5.33
2019-03-24T03:31:51.342Z,5.43
2019-03-24T03:32:51.558Z,5.33
2019-03-24T03:33:51.735Z,5.36
2019-03-24T03:34:51.904Z,5.35
2019-03-24T03:35:52.094Z,5.31
2019-03-24T03:36:52.259Z,5.45
2019-03-24T03:37:52.446Z,5.40
2019-03-24T03:38:52.624Z,5.45
2019-03-24T03:39:57.399Z,5.45
2019-03-24T03:40:52.995Z,5.40
2019-03-24T03:41:53.165Z,5.45
2019-03-24T03:42:53.363Z,5.48
2019-03-24T03:43:53.536Z,5.54
2019-03-24T03:44:53.718Z,5.45
2019-03-24T03:45:53.897Z,5.48
2019-03-24T03:46:54.082Z,5.48
2019-03-24T03:47:54.270Z,5.49
2019-03-24T03:48:54.463Z,5.51
2019-03-24T03:49:54.629Z,5.56
2019-03-24T03:50:54.811Z,5.54
2019-03-24T03:51:55.019Z,5.58
2019-03-24T03:52:55.182Z,5.68
2019-03-24T03:53:55.367Z,5.71
2019-03-24T03:54:55.552Z,5.64
2019-03-24T03:55:55.734Z,5.61
2019-03-24T03:56:55.918Z,5.74
2019-03-24T03:57:56.106Z,5.68
2019-03-24T03:58:56.297Z,5.72
2019-03-24T03:59:56.479Z,5.67
2019-03-24T04:00:56.660Z,5.81
2019-03-24T04:01:56.850Z,5.93
2019-03-24T04:02:57.038Z,5.93
2019-03-24T04:03:57.213Z,5.85
2019-03-24T04:04:57.410Z,5.90
2019-03-24T04:05:57.580Z,5.79
2019-03-24T04:06:57.759Z,5.82
2019-03-24T04:07:57.943Z,5.93
2019-03-24T04:08:58.122Z,5.89
2019-03-24T04:09:58.313Z,5.99
2019-03-24T04:10:58.489Z,6.09
2019-03-24T04:11:58.677Z,6.22
2019-03-24T04:12:58.857Z,6.27
2019-03-24T04:13:59.043Z,6.34
2019-03-24T04:14:59.232Z,6.34
2019-03-24T04:15:59.415Z,6.31
2019-03-24T04:17:07.258Z,6.38
2019-03-24T04:17:59.790Z,6.55
2019-03-24T04:18:59.957Z,6.58
2019-03-24T04:20:00.478Z,6.54
2019-03-24T04:21:00.323Z,6.55
2019-03-24T04:22:00.508Z,6.52
2019-03-24T04:23:00.712Z,6.56
2019-03-24T04:24:00.872Z,6.62
2019-03-24T04:25:01.061Z,6.62
2019-03-24T04:26:01.251Z,6.58
2019-03-24T04:27:01.429Z,6.58
2019-03-24T04:28:01.615Z,6.49
2019-03-24T04:29:01.800Z,6.51
2019-03-24T04:30:02.011Z,6.49
2019-03-24T04:31:02.168Z,6.44
2019-03-24T04:32:02.364Z,6.58
2019-03-24T04:33:02.530Z,6.61
2019-03-24T04:34:02.719Z,6.71
2019-03-24T04:35:02.905Z,6.74
2019-03-24T04:36:03.084Z,6.73
2019-03-24T04:37:03.276Z,6.71
2019-03-24T04:38:03.455Z,6.69
2019-03-24T04:39:03.672Z,6.81
2019-03-24T04:40:03.823Z,6.64
2019-03-24T04:41:04.003Z,6.66
2019-03-24T04:42:04.188Z,6.67
2019-03-24T04:43:04.374Z,6.67
2019-03-24T04:44:04.551Z,6.61
2019-03-24T04:45:04.736Z,6.51
2019-03-24T04:46:04.935Z,6.62
2019-03-24T04:47:05.124Z,6.70
2019-03-24T04:48:05.295Z,6.71
2019-03-24T04:49:05.480Z,6.71
2019-03-24T04:50:05.663Z,6.76
2019-03-24T04:51:05.845Z,6.69
2019-03-24T04:52:06.027Z,6.73
2019-03-24T04:53:06.213Z,6.69
2019-03-24T04:54:06.391Z,6.62
2019-03-24T04:55:06.581Z,6.79
2019-03-24T04:56:06.778Z,6.76
2019-03-24T04:57:06.966Z,6.70
2019-03-24T04:58:07.143Z,6.66
2019-03-24T04:59:07.325Z,6.67
2019-03-24T05:00:07.513Z,6.71
2019-03-24T05:01:07.699Z,6.67
2019-03-24T05:02:07.886Z,6.79
2019-03-24T05:03:08.067Z,6.84
2019-03-24T05:04:08.250Z,6.76
2019-03-24T05:05:08.434Z,6.69
2019-03-24T05:06:08.613Z,6.81
2019-03-24T05:07:08.799Z,6.74
2019-03-24T05:08:08.982Z,6.81
2019-03-24T05:09:09.185Z,6.92
2019-03-24T05:10:09.367Z,6.88
2019-03-24T05:11:09.552Z,6.84
2019-03-24T05:12:09.730Z,6.81
2019-03-24T05:13:09.913Z,6.80
2019-03-24T05:14:10.104Z,6.88
2019-03-24T05:15:10.281Z,6.85
2019-03-24T05:16:10.462Z,6.91
2019-03-24T05:17:10.651Z,6.88
2019-03-24T05:18:10.832Z,6.92
2019-03-24T05:19:11.024Z,6.81
2019-03-24T05:20:11.205Z,6.88
2019-03-24T05:21:11.400Z,6.81
2019-03-24T05:22:11.574Z,6.85
2019-03-24T05:23:11.754Z,6.94
2019-03-24T05:24:11.938Z,6.97
2019-03-24T05:25:12.121Z,7.07
2019-03-24T05:26:12.314Z,7.15
2019-03-24T05:27:12.502Z,6.99
2019-03-24T05:28:12.680Z,7.12
2019-03-24T05:29:12.867Z,7.10
2019-03-24T05:30:13.047Z,7.27
2019-03-24T05:31:13.232Z,7.32
2019-03-24T05:32:13.418Z,7.40
2019-03-24T05:33:13.611Z,7.39
2019-03-24T05:34:13.780Z,7.39
2019-03-24T05:35:13.965Z,7.49
2019-03-24T05:36:14.142Z,7.52
2019-03-24T05:37:14.328Z,7.53
2019-03-24T05:38:14.522Z,7.67
2019-03-24T05:39:14.715Z,7.74
2019-03-24T05:40:14.888Z,7.80
2019-03-24T05:41:15.074Z,7.83
2019-03-24T05:42:15.253Z,7.87
2019-03-24T05:43:15.443Z,7.90
2019-03-24T05:44:15.625Z,7.98
2019-03-24T05:45:15.809Z,7.89
2019-03-24T05:46:15.993Z,7.93
2019-03-24T05:47:16.177Z,8.01
2019-03-24T05:48:16.361Z,8.02
2019-03-24T05:49:16.542Z,8.00
2019-03-24T05:50:16.731Z,8.05
2019-03-24T05:51:16.916Z,8.04
2019-03-24T05:52:17.113Z,8.00
2019-03-24T05:53:17.296Z,7.97
2019-03-24T05:54:17.486Z,8.00
2019-03-24T05:55:17.665Z,7.95
2019-03-24T05:56:17.847Z,7.97
2019-03-24T05:57:18.059Z,7.80
2019-03-24T05:58:18.275Z,7.85
2019-03-24T05:59:18.464Z,7.85
2019-03-24T06:00:18.643Z,7.75
2019-03-24T06:01:18.826Z,7.77
2019-03-24T06:02:19.013Z,7.80
2019-03-24T06:03:19.191Z,7.90
2019-03-24T06:04:19.378Z,7.95
2019-03-24T06:05:19.561Z,7.93
2019-03-24T06:06:19.745Z,7.92
2019-03-24T06:07:19.930Z,7.98
2019-03-24T06:08:20.128Z,7.98
2019-03-24T06:09:20.302Z,8.00
2019-03-24T06:10:20.500Z,8.12
2019-03-24T06:11:20.671Z,8.18
2019-03-24T06:12:20.852Z,8.20
2019-03-24T06:13:21.042Z,8.18
2019-03-24T06:14:21.229Z,8.34
2019-03-24T06:15:21.422Z,8.26
2019-03-24T06:16:21.601Z,8.26
2019-03-24T06:17:21.782Z,8.33
2019-03-24T06:18:21.972Z,8.30
2019-03-24T06:19:22.162Z,8.34
2019-03-24T06:20:22.339Z,8.37
2019-03-24T06:21:22.533Z,8.30
2019-03-24T06:22:22.722Z,8.41
2019-03-24T06:23:22.902Z,8.37
2019-03-24T06:24:23.078Z,8.45
2019-03-24T06:25:23.266Z,8.45
2019-03-24T06:26:23.449Z,8.45
2019-03-24T06:27:23.640Z,8.44
2019-03-24T06:28:23.825Z,8.50
2019-03-24T06:29:24.013Z,8.66
2019-03-24T06:30:24.201Z,8.62
2019-03-24T06:31:24.382Z,8.58
2019-03-24T06:32:24.573Z,8.63
2019-03-24T06:33:24.755Z,8.71
2019-03-24T06:34:24.944Z,8.68
2019-03-24T06:35:25.117Z,8.80
2019-03-24T06:36:25.309Z,8.71
2019-03-24T06:37:25.491Z,8.66
2019-03-24T06:38:25.678Z,8.61
2019-03-24T06:39:25.858Z,8.48
2019-03-24T06:40:26.040Z,8.61
2019-03-24T06:41:26.225Z,8.66
2019-03-24T06:42:26.409Z,8.63
2019-03-24T06:43:26.604Z,8.59
2019-03-24T06:44:26.797Z,8.56
2019-03-24T06:45:28.793Z,8.65
2019-03-24T06:46:27.168Z,8.59
2019-03-24T06:47:27.349Z,8.62
2019-03-24T06:48:27.540Z,8.62
2019-03-24T06:49:27.724Z,8.66
2019-03-24T06:50:27.907Z,8.68
2019-03-24T06:51:28.095Z,8.77
2019-03-24T06:52:28.286Z,8.61
2019-03-24T06:53:28.472Z,8.55
2019-03-24T06:54:28.649Z,8.61
2019-03-24T06:55:28.838Z,8.55
2019-03-24T06:56:29.019Z,8.53
2019-03-24T06:57:29.209Z,8.73
2019-03-24T06:58:29.392Z,8.66
2019-03-24T06:59:29.575Z,8.73
2019-03-24T07:00:29.761Z,8.71
2019-03-24T07:01:29.943Z,8.76
2019-03-24T07:02:30.126Z,8.68
2019-03-24T07:03:32.636Z,8.84
2019-03-24T07:04:30.498Z,8.77
2019-03-24T07:05:30.683Z,8.91
2019-03-24T07:06:30.871Z,8.91
2019-03-24T07:07:31.057Z,8.99
2019-03-24T07:08:31.246Z,9.01
2019-03-24T07:09:31.426Z,9.01
2019-03-24T07:10:31.615Z,9.13
2019-03-24T07:11:31.796Z,9.08
2019-03-24T07:12:31.986Z,9.28
2019-03-24T07:13:32.165Z,9.38
2019-03-24T07:14:32.349Z,9.39
2019-03-24T07:15:32.532Z,9.43
2019-03-24T07:16:32.720Z,9.42
2019-03-24T07:17:32.906Z,9.38
2019-03-24T07:18:33.089Z,9.43
2019-03-24T07:19:33.285Z,9.39
2019-03-24T07:20:33.467Z,9.47
2019-03-24T07:21:33.642Z,9.58
2019-03-24T07:22:33.839Z,9.57
2019-03-24T07:23:34.023Z,9.64
2019-03-24T07:24:34.209Z,9.40
2019-03-24T07:25:34.397Z,9.43
2019-03-24T07:26:34.582Z,9.53
2019-03-24T07:27:34.763Z,9.60
2019-03-24T07:28:34.948Z,9.71
2019-03-24T07:29:35.139Z,9.68
2019-03-24T07:30:35.328Z,9.78
2019-03-24T07:31:35.514Z,10.02
2019-03-24T07:32:35.711Z,9.99
2019-03-24T07:33:35.896Z,10.01
2019-03-24T07:34:36.091Z,9.99
2019-03-24T07:35:36.275Z,10.12
2019-03-24T07:36:36.459Z,9.94
2019-03-24T07:37:36.644Z,10.07
2019-03-24T07:38:36.830Z,9.93
2019-03-24T07:39:37.020Z,9.75
2019-03-24T07:40:37.207Z,9.83
2019-03-24T07:41:37.387Z,9.91
2019-03-24T07:42:37.585Z,9.94
2019-03-24T07:43:37.767Z,9.87
2019-03-24T07:44:37.951Z,9.79
2019-03-24T07:45:38.144Z,10.01
2019-03-24T07:46:38.328Z,10.01
2019-03-24T07:47:38.515Z,10.14
2019-03-24T07:48:38.717Z,10.32
2019-03-24T07:49:38.901Z,10.44
2019-03-24T07:50:39.088Z,10.23
2019-03-24T07:51:39.270Z,10.32
2019-03-24T07:52:39.457Z,10.27
2019-03-24T07:53:39.650Z,10.47
2019-03-24T07:54:39.841Z,10.53
2019-03-24T07:55:40.031Z,10.55
2019-03-24T07:56:40.215Z,10.66
2019-03-24T07:57:40.409Z,10.71
2019-03-24T07:58:40.601Z,10.96
2019-03-24T07:59:40.780Z,11.07
2019-03-24T08:00:40.968Z,11.17
2019-03-24T08:01:41.165Z,11.11
2019-03-24T08:02:50.693Z,11.10
2019-03-24T08:03:41.551Z,10.86
2019-03-24T08:04:41.749Z,11.04
2019-03-24T08:05:41.924Z,10.45
2019-03-24T08:06:42.106Z,10.17
2019-03-24T08:07:42.291Z,10.29
2019-03-24T08:08:44.510Z,10.26
2019-03-24T08:09:42.664Z,10.08
2019-03-24T08:10:42.854Z,10.26
2019-03-24T08:11:43.044Z,10.36
2019-03-24T08:12:43.235Z,10.27
2019-03-24T08:13:53.378Z,10.55
2019-03-24T08:14:43.593Z,10.89
2019-03-24T08:15:43.790Z,10.68
2019-03-24T08:16:43.979Z,10.52
2019-03-24T08:17:44.170Z,10.70
2019-03-24T08:18:44.357Z,10.78
2019-03-24T08:19:44.541Z,10.91
2019-03-24T08:20:44.730Z,11.14
2019-03-24T08:21:44.912Z,11.00
2019-03-24T08:22:45.107Z,11.10
2019-03-24T08:23:45.303Z,11.28
2019-03-24T08:24:45.490Z,11.22
2019-03-24T08:25:45.693Z,11.10
2019-03-24T08:26:45.871Z,11.22
2019-03-24T08:27:46.060Z,11.00
2019-03-24T08:28:46.241Z,11.02
2019-03-24T08:29:46.433Z,10.88
2019-03-24T08:30:46.625Z,10.76
2019-03-24T08:31:46.807Z,10.97
2019-03-24T08:32:46.998Z,11.04
2019-03-24T08:33:47.188Z,11.06
2019-03-24T08:34:48.408Z,11.28
2019-03-24T08:35:47.569Z,11.27
2019-03-24T08:36:47.744Z,11.06
2019-03-24T08:37:47.943Z,10.84
2019-03-24T08:38:48.123Z,10.88
2019-03-24T08:39:48.319Z,10.85
2019-03-24T08:40:48.503Z,11.04
2019-03-24T08:41:48.691Z,11.11
2019-03-24T08:42:48.876Z,11.02
2019-03-24T08:43:49.061Z,11.06
2019-03-24T08:44:49.250Z,11.03
2019-03-24T08:45:49.430Z,10.94
2019-03-24T08:46:49.626Z,10.94
2019-03-24T08:47:49.808Z,10.86
2019-03-24T08:48:49.997Z,11.00
2019-03-24T08:49:50.194Z,10.48
2019-03-24T08:50:50.386Z,10.34
2019-03-24T08:51:51.306Z,10.44
2019-03-24T08:52:50.778Z,10.44
2019-03-24T08:53:50.960Z,10.59
2019-03-24T08:54:51.149Z,10.84
2019-03-24T08:55:51.339Z,10.92
2019-03-24T08:56:51.524Z,11.09
2019-03-24T08:57:51.711Z,11.28
2019-03-24T08:58:51.909Z,10.99
2019-03-24T08:59:52.087Z,10.67
2019-03-24T09:00:52.304Z,10.88
2019-03-24T09:01:52.508Z,10.81
2019-03-24T09:02:52.694Z,10.92
2019-03-24T09:03:52.895Z,11.27
2019-03-24T09:04:53.080Z,11.33
2019-03-24T09:05:53.269Z,11.39
2019-03-24T09:06:53.457Z,11.67
2019-03-24T09:07:53.642Z,11.83
2019-03-24T09:08:53.839Z,11.86
2019-03-24T09:09:54.059Z,11.98
2019-03-24T09:10:54.235Z,11.83
2019-03-24T09:11:54.433Z,12.04
2019-03-24T09:12:54.634Z,11.72
2019-03-24T09:13:54.811Z,11.79
2019-03-24T09:14:55.003Z,11.76
2019-03-24T09:15:55.195Z,11.47
2019-03-24T09:16:55.384Z,11.61
2019-03-24T09:17:55.587Z,11.67
2019-03-24T09:18:55.782Z,11.90
2019-03-24T09:19:55.968Z,11.95
2019-03-24T09:20:56.151Z,11.96
2019-03-24T09:21:56.344Z,11.88
2019-03-24T09:22:56.531Z,11.75
2019-03-24T09:23:56.718Z,11.80
2019-03-24T09:24:56.910Z,11.85
2019-03-24T09:25:57.098Z,11.83
2019-03-24T09:26:57.285Z,12.02
2019-03-24T09:27:57.480Z,12.07
2019-03-24T09:28:59.317Z,12.24
2019-03-24T09:29:57.863Z,12.29
2019-03-24T09:30:58.051Z,12.56
2019-03-24T09:31:58.239Z,12.41
2019-03-24T09:32:58.432Z,12.31
2019-03-24T09:33:58.624Z,12.41
2019-03-24T09:34:58.808Z,12.05
2019-03-24T09:35:58.998Z,12.47
2019-03-24T09:36:59.196Z,13.00
2019-03-24T09:37:59.381Z,13.15
2019-03-24T09:38:59.577Z,13.22
2019-03-24T09:39:59.768Z,13.23
2019-03-24T09:40:59.973Z,12.82
2019-03-24T09:42:00.168Z,12.67
2019-03-24T09:43:00.364Z,12.67
2019-03-24T09:44:00.546Z,12.47
2019-03-24T09:45:00.750Z,12.45
2019-03-24T09:46:00.931Z,12.95
2019-03-24T09:47:01.120Z,13.46
2019-03-24T09:48:01.306Z,13.63
2019-03-24T09:49:03.295Z,14.25
2019-03-24T09:50:01.682Z,14.88
2019-03-24T09:51:01.891Z,15.51
2019-03-24T09:52:02.083Z,15.90
2019-03-24T09:53:02.271Z,15.68
2019-03-24T09:54:02.462Z,15.78
2019-03-24T09:55:02.653Z,15.65
2019-03-24T09:56:02.838Z,14.96
2019-03-24T09:57:03.048Z,15.19
2019-03-24T09:58:03.237Z,14.50
2019-03-24T09:59:03.424Z,14.37
2019-03-24T10:00:03.621Z,14.61
2019-03-24T10:01:03.824Z,14.91
2019-03-24T10:02:04.007Z,15.36
2019-03-24T10:03:04.207Z,15.56
2019-03-24T10:04:04.441Z,15.69
2019-03-24T10:05:04.598Z,15.60
2019-03-24T10:06:04.797Z,16.50
2019-03-24T10:07:04.975Z,17.06
2019-03-24T10:08:05.175Z,16.73
2019-03-24T10:09:05.380Z,17.08
2019-03-24T10:10:05.564Z,16.25
2019-03-24T10:11:05.772Z,16.14
2019-03-24T10:12:05.981Z,15.25
2019-03-24T10:13:06.180Z,15.76
2019-03-24T10:14:06.392Z,16.09
2019-03-24T10:15:06.599Z,16.89
2019-03-24T10:16:06.785Z,16.83
2019-03-24T10:17:06.992Z,17.03
2019-03-24T10:18:07.188Z,17.28
2019-03-24T10:19:13.888Z,16.56
2019-03-24T10:20:07.597Z,16.63
2019-03-24T10:21:07.777Z,15.59
2019-03-24T10:22:07.989Z,15.21
2019-03-24T10:23:08.185Z,16.11
2019-03-24T10:24:08.371Z,17.26
2019-03-24T10:25:08.584Z,17.89
2019-03-24T10:26:08.792Z,17.18
2019-03-24T10:27:09.001Z,17.31
2019-03-24T10:28:09.202Z,17.34
2019-03-24T10:29:09.406Z,17.04
2019-03-24T10:30:09.609Z,16.76
2019-03-24T10:31:09.810Z,17.03
2019-03-24T10:32:10.007Z,16.76
2019-03-24T10:33:10.201Z,16.23
2019-03-24T10:34:10.405Z,16.97
2019-03-24T10:35:10.607Z,17.21
2019-03-24T10:36:10.800Z,18.15
2019-03-24T10:37:11.006Z,18.15
2019-03-24T10:38:11.202Z,18.00
2019-03-24T10:39:11.404Z,18.00
2019-03-24T10:40:11.602Z,17.56
2019-03-24T10:41:11.796Z,16.93
2019-03-24T10:42:11.997Z,15.60
2019-03-24T10:43:12.191Z,16.91
2019-03-24T10:44:12.394Z,17.34
2019-03-24T10:45:12.598Z,17.93
2019-03-24T10:46:12.797Z,18.18
2019-03-24T10:47:12.996Z,17.86
2019-03-24T10:48:13.194Z,16.71
2019-03-24T10:49:24.115Z,16.61
2019-03-24T10:50:14.528Z,17.71
2019-03-24T10:51:13.782Z,18.27
2019-03-24T10:52:14.038Z,16.78
2019-03-24T10:53:14.204Z,16.02
2019-03-24T10:54:14.405Z,16.27
2019-03-24T10:55:14.599Z,15.53
2019-03-24T10:56:14.797Z,15.17
2019-03-24T10:57:15.006Z,15.32
2019-03-24T10:58:15.207Z,15.75
2019-03-24T10:59:15.414Z,16.39
2019-03-24T11:00:15.615Z,16.85
2019-03-24T11:01:15.809Z,16.91
2019-03-24T11:02:16.005Z,17.06
2019-03-24T11:03:16.205Z,16.64
2019-03-24T11:04:16.414Z,15.11
2019-03-24T11:05:16.620Z,14.86
2019-03-24T11:06:16.815Z,15.02
2019-03-24T11:07:17.009Z,15.13
2019-03-24T11:08:17.205Z,14.84
2019-03-24T11:09:17.395Z,14.07
2019-03-24T11:10:17.615Z,13.87
2019-03-24T11:11:17.797Z,13.88
2019-03-24T11:12:18.004Z,14.06
2019-03-24T11:13:18.197Z,14.18
2019-03-24T11:14:18.400Z,14.04
2019-03-24T11:15:18.605Z,13.96
2019-03-24T11:16:18.796Z,14.02
2019-03-24T11:17:18.989Z,13.84
2019-03-24T11:18:19.202Z,13.55
2019-03-24T11:19:19.394Z,13.51
2019-03-24T11:20:19.582Z,13.39
2019-03-24T11:21:19.790Z,13.38
2019-03-24T11:22:19.974Z,13.55
2019-03-24T11:23:20.164Z,13.63
2019-03-24T11:24:20.371Z,13.48
2019-03-24T11:25:20.566Z,13.45
2019-03-24T11:26:20.757Z,13.59
2019-03-24T11:27:20.961Z,13.51
2019-03-24T11:28:21.150Z,13.26
2019-03-24T11:29:21.341Z,13.25
2019-03-24T11:30:21.537Z,13.23
2019-03-24T11:31:21.720Z,13.25
2019-03-24T11:32:21.924Z,13.29
2019-03-24T11:33:22.113Z,13.49
2019-03-24T11:34:22.306Z,13.49
2019-03-24T11:35:22.495Z,13.70
2019-03-24T11:36:22.690Z,13.69
2019-03-24T11:37:22.891Z,13.00
2019-03-24T11:38:23.079Z,12.89
2019-03-24T11:39:23.290Z,13.08
2019-03-24T11:40:23.482Z,13.23
2019-03-24T11:41:23.673Z,13.12
2019-03-24T11:42:23.866Z,13.11
2019-03-24T11:43:24.060Z,13.10
2019-03-24T11:44:24.266Z,13.22
2019-03-24T11:45:24.470Z,13.12
2019-03-24T11:46:24.669Z,13.01
2019-03-24T11:47:26.776Z,12.95
2019-03-24T11:48:25.036Z,12.71
2019-03-24T11:49:25.224Z,12.68
2019-03-24T11:50:25.436Z,12.54
2019-03-24T11:51:25.620Z,12.39
2019-03-24T11:52:25.856Z,12.39
2019-03-24T11:53:26.062Z,12.29
2019-03-24T11:54:47.257Z,12.34
2019-03-24T11:55:26.436Z,12.32
2019-03-24T11:56:26.620Z,12.24
2019-03-24T11:57:26.813Z,12.19
2019-03-24T11:58:27.010Z,12.21
2019-03-24T11:59:27.207Z,12.14
2019-03-24T12:00:27.393Z,12.19
2019-03-24T12:01:37.774Z,12.12
2019-03-24T12:02:27.773Z,12.02
2019-03-24T12:03:28.011Z,12.13
2019-03-24T12:04:28.150Z,12.04
2019-03-24T12:05:28.344Z,12.09
2019-03-24T12:06:28.537Z,12.14
2019-03-24T12:07:28.718Z,12.14
2019-03-24T12:08:28.904Z,12.12
2019-03-24T12:09:29.091Z,12.19
2019-03-24T12:10:29.292Z,12.27
2019-03-24T12:11:29.472Z,12.16
2019-03-24T12:12:29.656Z,12.17
2019-03-24T12:13:29.855Z,12.14
2019-03-24T12:14:30.039Z,12.27
2019-03-24T12:15:30.227Z,12.41
2019-03-24T12:16:30.414Z,12.49
2019-03-24T12:17:30.598Z,12.37
2019-03-24T12:18:30.796Z,12.49
2019-03-24T12:19:30.994Z,12.42
2019-03-24T12:20:31.183Z,12.49
2019-03-24T12:21:31.386Z,12.52
2019-03-24T12:22:31.573Z,12.38
2019-03-24T12:23:31.763Z,12.23
2019-03-24T12:24:31.951Z,12.13
2019-03-24T12:25:32.154Z,12.05
2019-03-24T12:26:32.333Z,12.01
2019-03-24T12:27:32.524Z,11.98
2019-03-24T12:28:32.716Z,12.21
2019-03-24T12:29:32.914Z,12.27
2019-03-24T12:30:33.089Z,12.19
2019-03-24T12:31:33.276Z,11.88
2019-03-24T12:32:33.464Z,12.01
2019-03-24T12:33:33.657Z,11.91
2019-03-24T12:34:33.849Z,11.94
2019-03-24T12:35:34.033Z,12.02
2019-03-24T12:36:34.231Z,11.98
2019-03-24T12:37:34.423Z,12.09
2019-03-24T12:38:34.611Z,12.10
2019-03-24T12:39:34.793Z,12.29
2019-03-24T12:40:34.984Z,12.49
2019-03-24T12:41:35.190Z,12.54
2019-03-24T12:42:35.369Z,12.29
2019-03-24T12:43:35.558Z,12.31
2019-03-24T12:44:35.745Z,12.39
2019-03-24T12:45:35.941Z,12.45
2019-03-24T12:46:36.119Z,12.59
2019-03-24T12:47:36.306Z,12.62
2019-03-24T12:48:36.503Z,12.68
2019-03-24T12:49:36.692Z,12.68
2019-03-24T12:50:36.876Z,12.70
2019-03-24T12:51:37.064Z,12.71
2019-03-24T12:52:37.254Z,12.90
2019-03-24T12:53:37.441Z,12.72
2019-03-24T12:54:37.630Z,12.67
2019-03-24T12:55:37.826Z,12.78
2019-03-24T12:56:38.013Z,12.64
2019-03-24T12:57:38.213Z,12.72
2019-03-24T12:58:38.405Z,12.62
2019-03-24T12:59:38.593Z,12.68
2019-03-24T13:00:38.776Z,12.23
2019-03-24T13:01:38.972Z,12.21
2019-03-24T13:02:39.171Z,12.27
2019-03-24T13:03:39.355Z,12.24
2019-03-24T13:04:39.545Z,12.20
2019-03-24T13:05:39.738Z,12.29
2019-03-24T13:06:39.919Z,12.56
2019-03-24T13:07:40.102Z,12.65
2019-03-24T13:08:40.296Z,12.42
2019-03-24T13:09:40.496Z,12.70
2019-03-24T13:10:40.686Z,12.79
2019-03-24T13:11:40.875Z,12.87
2019-03-24T13:12:41.064Z,12.72